Time;durP1;ratioP1;P1;durP2;ratioP2;P2;SDS_P1;SDS_P2;PMS_P1;PMS_P2;Temp;Humidity;BMP_temperature;BMP_pressure;BME280_temperature;BME280_humidity;BME280_pressure;Samples;Min_cycle;Max_cycle;Signal;HPM_P1;HPM_P2
2021/12/18 00:01:06;;;;;;;28.55;15.25;;;8.10;99.90;;;;;;5086569;28;20104;-75
2021/12/18 00:03:32;;;;;;;28.50;14.90;;;8.00;99.90;;;;;;5086764;28;20273;-74
2021/12/18 00:05:59;;;;;;;29.20;15.05;;;8.10;99.90;;;;;;5069520;28;20024;-74
2021/12/18 00:08:25;;;;;;;31.33;15.52;;;8.10;99.90;;;;;;5087482;28;20032;-74
2021/12/18 00:10:53;;;;;;;30.60;15.00;;;8.10;99.90;;;;;;5087257;28;20247;-74
2021/12/18 00:13:19;;;;;;;28.02;15.35;;;8.10;99.90;;;;;;5087735;28;20341;-74
2021/12/18 00:15:45;;;;;;;29.90;15.57;;;8.10;99.90;;;;;;5087123;28;20315;-74
2021/12/18 00:18:10;;;;;;;32.70;16.55;;;8.10;99.90;;;;;;5087446;28;20016;-74
2021/12/18 00:20:37;;;;;;;30.02;15.90;;;8.20;99.90;;;;;;5086827;28;20048;-74
2021/12/18 00:23:04;;;;;;;28.38;14.75;;;8.20;99.90;;;;;;5086305;28;20012;-74
2021/12/18 00:25:30;;;;;;;30.45;14.98;;;8.20;99.90;;;;;;5069051;28;20024;-74
2021/12/18 00:27:56;;;;;;;29.17;15.55;;;8.20;99.90;;;;;;5087119;28;20052;-74
2021/12/18 00:30:22;;;;;;;27.95;15.57;;;8.10;99.90;;;;;;5087232;28;20074;-74
2021/12/18 00:32:48;;;;;;;32.80;17.52;;;8.10;99.90;;;;;;5086895;28;20300;-74
2021/12/18 00:35:14;;;;;;;34.03;17.48;;;8.10;99.90;;;;;;5085803;28;20099;-73
2021/12/18 00:37:41;;;;;;;35.28;16.90;;;8.10;99.90;;;;;;5087128;28;20016;-73
2021/12/18 00:40:15;;;;;;;40.28;18.02;;;8.10;99.90;;;;;;5069176;28;20043;-74
2021/12/18 00:42:47;;;;;;;40.05;19.15;;;8.10;99.90;;;;;;5086090;28;20027;-74
2021/12/18 00:45:15;;;;;;;37.60;18.77;;;8.10;99.90;;;;;;5085660;28;20066;-74
2021/12/18 00:47:42;;;;;;;39.70;18.35;;;8.10;99.90;;;;;;5086020;28;20028;-73
2021/12/18 00:50:12;;;;;;;37.22;18.33;;;8.10;99.90;;;;;;5085479;28;20062;-74
2021/12/18 00:52:38;;;;;;;36.92;16.90;;;8.10;99.90;;;;;;5085862;28;20016;-74
2021/12/18 00:55:04;;;;;;;36.75;16.58;;;8.10;99.90;;;;;;5086581;28;20083;-73
2021/12/18 00:57:30;;;;;;;35.22;18.17;;;8.10;99.90;;;;;;5068591;28;20028;-73
2021/12/18 01:00:00;;;;;;;41.85;18.38;;;8.20;99.90;;;;;;5084693;28;20024;-73
2021/12/18 01:02:28;;;;;;;41.38;18.25;;;8.20;99.90;;;;;;5085603;28;20017;-74
2021/12/18 01:04:54;;;;;;;38.38;18.17;;;8.20;99.90;;;;;;5068616;28;20020;-73
2021/12/18 01:07:19;;;;;;;42.38;19.40;;;8.20;99.90;;;;;;5085100;28;20028;-74
2021/12/18 01:10:01;;;;;;;37.38;18.33;;;8.20;99.90;;;;;;5086331;28;20024;-74
2021/12/18 01:12:33;;;;;;;40.65;19.85;;;8.20;99.90;;;;;;5085534;28;20028;-73
2021/12/18 01:15:14;;;;;;;40.55;19.05;;;8.20;99.90;;;;;;5086220;28;20020;-73
2021/12/18 01:23:12;;;;;;;39.70;18.60;;;8.10;99.90;;;;;;5070099;28;20096;-74
2021/12/18 01:25:38;;;;;;;40.22;18.88;;;8.10;99.90;;;;;;5085484;28;20021;-74
2021/12/18 01:28:04;;;;;;;40.00;18.85;;;8.10;99.90;;;;;;5086210;28;20029;-74
2021/12/18 01:30:30;;;;;;;36.88;18.73;;;8.20;99.90;;;;;;5092576;28;20039;-73
2021/12/18 01:32:56;;;;;;;34.95;17.70;;;8.10;99.90;;;;;;5077682;28;20020;-72
2021/12/18 01:35:22;;;;;;;41.67;19.00;;;8.10;99.90;;;;;;5095153;28;20043;-72
2021/12/18 01:37:50;;;;;;;36.38;18.05;;;8.10;99.90;;;;;;5093583;28;20044;-72
2021/12/18 01:40:17;;;;;;;34.95;18.08;;;8.20;99.90;;;;;;5092268;28;20070;-74
2021/12/18 01:43:32;;;;;;;32.03;16.70;;;8.20;99.90;;;;;;5090999;28;20050;-73
2021/12/18 01:45:40;;;;;;;32.53;16.77;;;8.20;99.90;;;;;;5091418;28;20134;-73
2021/12/18 01:53:38;;;;;;;34.33;16.30;;;8.30;99.90;;;;;;5086880;28;20443;-74
2021/12/18 01:56:04;;;;;;;32.65;17.90;;;8.30;99.90;;;;;;5068282;28;20295;-73
2021/12/18 01:58:31;;;;;;;30.15;16.65;;;8.20;99.90;;;;;;5084633;28;20226;-74
2021/12/18 02:00:58;;;;;;;32.25;18.40;;;8.30;99.90;;;;;;5085481;28;20032;-74
2021/12/18 02:03:24;;;;;;;35.25;20.05;;;8.30;99.90;;;;;;5084541;28;20085;-73
2021/12/18 02:05:51;;;;;;;36.15;18.30;;;8.30;99.90;;;;;;5084277;28;20028;-73
2021/12/18 02:08:20;;;;;;;31.88;18.35;;;8.30;99.90;;;;;;5084040;28;20095;-74
2021/12/18 02:10:52;;;;;;;37.22;20.15;;;8.30;99.90;;;;;;5085192;28;20062;-73
2021/12/18 02:13:36;;;;;;;35.85;19.77;;;8.30;99.90;;;;;;5084157;28;20384;-73
2021/12/18 02:21:34;;;;;;;32.45;19.02;;;8.30;99.90;;;;;;5070357;28;20044;-73
2021/12/18 02:24:00;;;;;;;31.17;19.05;;;8.30;99.90;;;;;;5082313;28;20199;-75
2021/12/18 02:26:26;;;;;;;30.70;18.58;;;8.30;99.90;;;;;;5084575;28;20028;-75
2021/12/18 02:28:55;;;;;;;34.05;19.60;;;8.30;99.90;;;;;;5084977;28;20020;-74
2021/12/18 02:31:20;;;;;;;30.13;17.85;;;8.30;99.90;;;;;;5083776;28;20084;-74
2021/12/18 02:33:46;;;;;;;31.98;18.92;;;8.30;99.90;;;;;;5085304;28;20300;-75
2021/12/18 02:36:21;;;;;;;30.90;18.63;;;8.40;99.90;;;;;;5084783;28;20091;-73
2021/12/18 02:39:17;;;;;;;27.67;18.17;;;8.40;99.90;;;;;;5084659;28;20318;-74
2021/12/18 02:41:42;;;;;;;26.85;17.45;;;8.40;99.90;;;;;;5083839;28;20025;-73
2021/12/18 02:44:10;;;;;;;28.98;17.63;;;8.40;99.90;;;;;;5084703;28;20012;-72
2021/12/18 02:46:37;;;;;;;26.05;16.77;;;8.40;99.90;;;;;;5084441;28;20074;-75
2021/12/18 02:49:11;;;;;;;24.83;16.67;;;8.40;99.90;;;;;;5083644;28;20024;-73
2021/12/18 02:51:37;;;;;;;25.67;16.60;;;8.40;99.90;;;;;;5084651;28;20082;-73
2021/12/18 02:54:03;;;;;;;24.77;16.30;;;8.40;99.90;;;;;;5084529;28;20017;-73
2021/12/18 02:56:29;;;;;;;23.88;15.55;;;8.40;99.90;;;;;;5083899;28;20078;-75
2021/12/18 02:59:04;;;;;;;22.95;15.70;;;8.40;99.90;;;;;;5084397;28;20079;-74
2021/12/18 03:01:30;;;;;;;22.15;14.82;;;8.40;99.90;;;;;;5084528;28;20303;-73
2021/12/18 03:03:58;;;;;;;20.40;13.88;;;8.40;99.90;;;;;;5083341;28;20012;-74
2021/12/18 03:06:33;;;;;;;21.92;13.93;;;8.40;99.90;;;;;;5084189;28;20020;-74
2021/12/18 03:09:25;;;;;;;20.77;12.98;;;8.40;99.90;;;;;;5083210;28;20044;-75
2021/12/18 03:23:15;;;;;;;17.42;11.70;;;8.50;99.90;;;;;;5082710;28;20043;-73
2021/12/18 03:25:38;;;;;;;16.15;11.05;;;8.50;99.90;;;;;;5081417;28;20021;-73
2021/12/18 03:28:06;;;;;;;20.42;11.77;;;8.50;99.90;;;;;;5083985;28;20016;-73
2021/12/18 03:30:33;;;;;;;16.85;11.38;;;8.50;99.90;;;;;;5082965;28;20055;-73
2021/12/18 03:32:59;;;;;;;20.30;12.27;;;8.50;99.90;;;;;;5083962;28;20354;-74
2021/12/18 03:35:25;;;;;;;16.38;11.18;;;8.50;99.90;;;;;;5084139;28;20256;-74
2021/12/18 03:37:52;;;;;;;16.58;11.40;;;8.40;99.90;;;;;;5084016;28;20029;-73
2021/12/18 03:40:21;;;;;;;21.00;12.07;;;8.40;99.90;;;;;;5082833;28;20062;-75
2021/12/18 03:42:47;;;;;;;19.30;11.57;;;8.40;99.90;;;;;;5083046;28;20059;-73
2021/12/18 03:45:14;;;;;;;17.83;12.20;;;8.40;99.90;;;;;;5082675;28;20024;-74
2021/12/18 03:47:40;;;;;;;17.98;11.45;;;8.40;99.90;;;;;;5083702;28;20017;-73
2021/12/18 03:50:07;;;;;;;19.08;11.80;;;8.40;99.90;;;;;;5083894;28;20089;-74
2021/12/18 03:52:32;;;;;;;20.00;11.27;;;8.40;99.90;;;;;;5082516;28;20304;-74
2021/12/18 03:54:59;;;;;;;19.30;12.68;;;8.40;99.90;;;;;;5083931;28;20027;-74
2021/12/18 03:57:26;;;;;;;18.67;11.95;;;8.50;99.90;;;;;;5083466;28;20028;-73
2021/12/18 03:59:52;;;;;;;21.10;11.65;;;8.50;99.90;;;;;;5082727;28;20085;-73
2021/12/18 04:02:17;;;;;;;19.08;11.50;;;8.50;99.90;;;;;;5082609;28;20032;-74
2021/12/18 04:04:43;;;;;;;20.90;11.35;;;8.50;99.90;;;;;;5083852;28;20062;-74
2021/12/18 04:07:09;;;;;;;17.20;11.27;;;8.50;99.90;;;;;;5082698;28;20380;-74
2021/12/18 04:09:35;;;;;;;20.73;11.48;;;8.50;99.90;;;;;;5083417;28;20024;-74
2021/12/18 04:12:01;;;;;;;20.63;12.40;;;8.50;99.90;;;;;;5083698;28;20199;-74
2021/12/18 04:14:27;;;;;;;21.95;13.13;;;8.50;99.90;;;;;;5083778;28;20035;-74
2021/12/18 04:16:53;;;;;;;18.83;11.68;;;8.50;99.90;;;;;;5083682;28;20050;-73
2021/12/18 04:19:19;;;;;;;20.20;12.50;;;8.50;99.90;;;;;;5083314;28;20028;-73
2021/12/18 04:21:46;;;;;;;20.45;13.27;;;8.50;99.90;;;;;;5083721;28;20020;-74
2021/12/18 04:24:12;;;;;;;22.80;13.50;;;8.50;99.90;;;;;;5083633;28;20080;-74
2021/12/18 04:26:38;;;;;;;22.35;14.07;;;8.50;99.90;;;;;;5081507;28;20016;-73
2021/12/18 04:29:08;;;;;;;26.08;14.52;;;8.50;99.90;;;;;;5083432;28;20016;-73
2021/12/18 04:31:35;;;;;;;26.20;14.60;;;8.50;99.90;;;;;;5082376;28;20032;-73
2021/12/18 04:34:01;;;;;;;26.17;14.88;;;8.50;99.90;;;;;;5050607;28;20040;-74
2021/12/18 04:36:27;;;;;;;25.50;15.30;;;8.60;99.90;;;;;;5087144;28;20021;-73
2021/12/18 04:38:53;;;;;;;23.30;14.93;;;8.60;99.90;;;;;;5086795;28;20079;-73
2021/12/18 04:41:24;;;;;;;24.70;15.10;;;8.60;99.90;;;;;;5069303;28;20029;-74
2021/12/18 04:43:51;;;;;;;24.05;15.38;;;8.60;99.90;;;;;;5086136;28;20035;-74
2021/12/18 04:46:17;;;;;;;24.30;15.10;;;8.60;99.90;;;;;;5090549;28;20023;-73
2021/12/18 04:48:43;;;;;;;22.73;16.15;;;8.60;99.90;;;;;;5099522;28;20020;-74
2021/12/18 04:51:09;;;;;;;21.70;15.13;;;8.60;99.90;;;;;;5097864;28;20015;-74
2021/12/18 04:53:34;;;;;;;24.08;15.75;;;8.60;99.90;;;;;;5097000;28;20055;-74
2021/12/18 04:56:00;;;;;;;24.17;16.42;;;8.60;99.90;;;;;;5093736;28;20039;-73
2021/12/18 04:58:26;;;;;;;23.73;16.27;;;8.60;99.90;;;;;;5088394;28;20013;-73
2021/12/18 05:00:53;;;;;;;24.60;16.40;;;8.70;99.90;;;;;;5086831;28;20219;-73
2021/12/18 05:03:19;;;;;;;21.80;15.63;;;8.60;99.90;;;;;;5086256;28;20065;-73
2021/12/18 05:05:46;;;;;;;23.45;16.00;;;8.60;99.90;;;;;;5085298;28;20020;-74
2021/12/18 05:08:12;;;;;;;24.63;16.75;;;8.60;99.90;;;;;;5085453;28;20080;-73
2021/12/18 05:10:38;;;;;;;23.75;15.93;;;8.60;99.90;;;;;;5068774;28;20027;-74
2021/12/18 05:13:04;;;;;;;23.23;15.77;;;8.70;99.90;;;;;;5086571;28;20020;-73
2021/12/18 05:15:30;;;;;;;24.13;15.70;;;8.70;99.90;;;;;;5085375;28;20032;-73
2021/12/18 05:17:56;;;;;;;21.23;14.95;;;8.70;99.90;;;;;;5086255;28;20373;-74
2021/12/18 05:20:22;;;;;;;22.73;15.85;;;8.70;99.90;;;;;;5084714;28;20056;-74
2021/12/18 05:22:47;;;;;;;23.45;15.88;;;8.70;99.90;;;;;;5068417;28;20047;-74
2021/12/18 05:25:13;;;;;;;20.80;15.57;;;8.60;99.90;;;;;;5086004;28;20024;-73
2021/12/18 05:27:39;;;;;;;23.58;14.68;;;8.70;99.90;;;;;;5084083;28;20027;-73
2021/12/18 05:30:07;;;;;;;22.90;15.02;;;8.60;99.90;;;;;;5086103;28;20020;-73
2021/12/18 05:32:32;;;;;;;20.15;14.98;;;8.60;99.90;;;;;;5085235;28;20036;-73
2021/12/18 05:34:58;;;;;;;22.10;16.10;;;8.60;99.90;;;;;;5085999;28;20031;-73
2021/12/18 05:39:57;;;;;;;22.73;15.57;;;8.60;99.90;;;;;;5085603;28;20207;-74
2021/12/18 05:42:23;;;;;;;25.08;15.23;;;8.60;99.90;;;;;;5068338;28;20079;-74
2021/12/18 05:44:49;;;;;;;22.70;13.73;;;8.60;99.90;;;;;;5051312;28;20289;-73
2021/12/18 05:47:15;;;;;;;21.58;14.25;;;8.70;99.90;;;;;;5085507;28;20028;-73
2021/12/18 05:49:40;;;;;;;22.92;14.65;;;8.60;99.90;;;;;;5084546;28;20028;-73
2021/12/18 05:52:07;;;;;;;22.33;14.52;;;8.60;99.90;;;;;;5085667;28;20294;-74
2021/12/18 05:54:35;;;;;;;21.27;14.35;;;8.70;99.90;;;;;;5085964;28;20021;-74
2021/12/18 05:57:04;;;;;;;24.13;14.45;;;8.60;99.90;;;;;;5085304;28;20083;-74
2021/12/18 05:59:29;;;;;;;22.80;14.02;;;8.70;99.90;;;;;;5084429;28;20091;-73
2021/12/18 06:01:55;;;;;;;27.40;14.20;;;8.70;99.90;;;;;;5084630;28;20029;-73
2021/12/18 06:04:21;;;;;;;25.17;15.13;;;8.70;99.90;;;;;;5085604;28;20029;-73
2021/12/18 06:06:46;;;;;;;23.65;15.23;;;8.70;99.90;;;;;;5085332;28;20017;-73
2021/12/18 06:09:12;;;;;;;22.38;15.57;;;8.70;99.90;;;;;;5085299;28;20275;-74
2021/12/18 06:11:40;;;;;;;23.33;16.05;;;8.60;99.90;;;;;;5084266;28;20076;-73
2021/12/18 06:14:06;;;;;;;25.50;15.32;;;8.60;99.90;;;;;;5085521;28;20326;-73
2021/12/18 06:16:32;;;;;;;23.08;15.48;;;8.60;99.90;;;;;;5084274;28;20039;-74
2021/12/18 06:18:57;;;;;;;25.73;15.68;;;8.60;99.90;;;;;;5085196;28;20311;-74
2021/12/18 06:21:23;;;;;;;24.35;14.73;;;8.60;99.90;;;;;;5085049;28;20080;-74
2021/12/18 06:23:52;;;;;;;24.02;15.48;;;8.60;99.90;;;;;;5084269;28;20020;-73
2021/12/18 06:26:19;;;;;;;22.15;14.20;;;8.60;99.90;;;;;;5084831;28;20254;-73
2021/12/18 06:28:45;;;;;;;25.70;16.30;;;8.70;99.90;;;;;;5083645;28;20050;-74
2021/12/18 06:31:11;;;;;;;24.38;14.27;;;8.60;99.90;;;;;;5084785;28;20016;-74
2021/12/18 06:33:37;;;;;;;22.85;15.00;;;8.70;99.90;;;;;;5084949;28;20032;-73
2021/12/18 06:36:03;;;;;;;25.23;14.18;;;8.70;99.90;;;;;;5085147;28;20314;-74
2021/12/18 06:38:29;;;;;;;23.65;14.63;;;8.60;99.90;;;;;;5083648;28;20029;-73
2021/12/18 06:40:55;;;;;;;25.25;14.65;;;8.60;99.90;;;;;;5083418;28;20094;-74
2021/12/18 06:43:21;;;;;;;26.00;14.70;;;8.60;99.90;;;;;;5084805;28;20031;-73
2021/12/18 06:45:46;;;;;;;23.92;14.85;;;8.60;99.90;;;;;;5083414;28;20075;-73
2021/12/18 06:48:12;;;;;;;27.33;14.95;;;8.60;99.90;;;;;;5084717;28;20020;-73
2021/12/18 06:50:38;;;;;;;23.20;14.40;;;8.60;99.90;;;;;;5084602;28;20099;-74
2021/12/18 06:53:04;;;;;;;24.30;14.90;;;8.60;99.90;;;;;;5083345;28;20071;-75
2021/12/18 06:55:31;;;;;;;25.15;14.63;;;8.60;99.90;;;;;;5083255;28;20250;-74
2021/12/18 06:57:57;;;;;;;25.02;14.55;;;8.50;99.90;;;;;;5082329;28;20087;-75
2021/12/18 07:00:24;;;;;;;27.50;14.43;;;8.50;99.90;;;;;;5083780;28;20074;-73
2021/12/18 07:02:50;;;;;;;25.00;14.45;;;8.50;99.90;;;;;;5084457;28;20021;-74
2021/12/18 07:05:16;;;;;;;31.77;15.50;;;8.50;99.90;;;;;;5083246;28;20020;-73
2021/12/18 07:07:42;;;;;;;26.33;13.98;;;8.50;99.90;;;;;;5084425;28;20020;-73
2021/12/18 07:10:11;;;;;;;25.23;13.73;;;8.50;99.90;;;;;;5066205;28;20047;-74
2021/12/18 07:12:37;;;;;;;28.45;13.57;;;8.50;99.90;;;;;;5084400;28;20091;-73
2021/12/18 07:15:06;;;;;;;25.30;14.10;;;8.50;99.90;;;;;;5083212;28;20024;-73
2021/12/18 07:17:31;;;;;;;22.45;13.68;;;8.50;99.90;;;;;;5084376;28;20016;-73
2021/12/18 07:19:57;;;;;;;25.88;13.65;;;8.50;99.90;;;;;;5083884;28;20389;-73
2021/12/18 07:22:23;;;;;;;27.10;13.50;;;8.50;99.90;;;;;;5083947;28;20087;-73
2021/12/18 07:24:48;;;;;;;27.83;14.30;;;8.50;99.90;;;;;;5084363;28;20035;-74
2021/12/18 07:27:14;;;;;;;27.15;14.10;;;8.50;99.90;;;;;;5083967;28;20253;-74
2021/12/18 07:29:40;;;;;;;26.40;13.73;;;8.50;99.90;;;;;;5082279;28;20028;-74
2021/12/18 07:32:06;;;;;;;26.65;13.52;;;8.50;99.90;;;;;;5083940;28;20079;-74
2021/12/18 07:34:32;;;;;;;26.15;13.60;;;8.60;99.90;;;;;;5083126;28;20032;-74
2021/12/18 07:36:58;;;;;;;27.35;12.93;;;8.50;99.90;;;;;;5083910;28;20054;-73
2021/12/18 07:39:23;;;;;;;25.95;13.52;;;8.60;99.90;;;;;;5083598;28;20020;-73
2021/12/18 07:41:49;;;;;;;26.60;11.73;;;8.60;99.90;;;;;;5082813;28;20024;-73
2021/12/18 07:44:15;;;;;;;27.90;13.63;;;8.60;99.90;;;;;;5083944;28;20020;-73
2021/12/18 07:46:40;;;;;;;24.77;12.70;;;8.50;99.90;;;;;;5083772;28;20361;-74
2021/12/18 07:49:08;;;;;;;27.83;13.13;;;8.50;99.90;;;;;;5084047;28;20020;-73
2021/12/18 07:51:34;;;;;;;26.38;13.05;;;8.50;99.90;;;;;;5083781;28;20028;-74
2021/12/18 07:54:00;;;;;;;22.75;12.45;;;8.50;99.90;;;;;;5084685;28;20059;-74
2021/12/18 07:56:26;;;;;;;27.75;13.77;;;8.50;99.90;;;;;;5095356;28;20020;-73
2021/12/18 07:58:53;;;;;;;27.00;13.35;;;8.50;99.90;;;;;;5078896;28;20031;-74
2021/12/18 08:01:19;;;;;;;25.63;12.68;;;8.50;99.90;;;;;;5094246;28;20047;-74
2021/12/18 08:03:44;;;;;;;25.95;12.68;;;8.50;99.90;;;;;;5091836;28;20059;-73
2021/12/18 08:06:10;;;;;;;25.70;12.65;;;8.50;99.90;;;;;;5087147;28;20028;-74
2021/12/18 08:08:37;;;;;;;22.52;11.40;;;8.50;99.90;;;;;;5084842;28;20020;-74
2021/12/18 08:11:03;;;;;;;23.85;13.18;;;8.50;99.90;;;;;;5087777;28;20020;-73
2021/12/18 08:13:29;;;;;;;21.95;11.85;;;8.60;99.90;;;;;;5087546;28;20046;-74
2021/12/18 08:15:55;;;;;;;24.05;12.43;;;8.50;99.90;;;;;;5087770;28;20021;-72
2021/12/18 08:18:21;;;;;;;21.92;12.07;;;8.50;99.90;;;;;;5087127;28;20373;-72
2021/12/18 08:20:46;;;;;;;22.17;11.02;;;8.50;99.90;;;;;;5086250;28;20048;-72
2021/12/18 08:23:12;;;;;;;22.10;11.68;;;8.60;99.90;;;;;;5087377;28;20278;-72
2021/12/18 08:25:38;;;;;;;22.33;12.23;;;8.50;99.90;;;;;;5087260;28;20097;-73
2021/12/18 08:28:05;;;;;;;25.80;12.45;;;8.60;99.90;;;;;;5087442;28;20066;-74
2021/12/18 08:30:33;;;;;;;21.40;11.75;;;8.60;99.90;;;;;;5084827;28;20319;-73
2021/12/18 08:32:59;;;;;;;22.33;12.25;;;8.60;99.90;;;;;;5086968;28;20028;-74
2021/12/18 08:35:27;;;;;;;24.83;12.95;;;8.60;99.90;;;;;;5087153;28;20288;-73
2021/12/18 08:37:53;;;;;;;20.85;11.52;;;8.60;99.90;;;;;;5087289;28;20050;-73
2021/12/18 08:40:20;;;;;;;24.90;12.10;;;8.60;99.90;;;;;;5085680;28;20307;-73
2021/12/18 08:42:46;;;;;;;22.48;12.10;;;8.60;99.90;;;;;;5085920;28;20082;-73
2021/12/18 08:45:12;;;;;;;28.85;12.88;;;8.60;99.90;;;;;;5086752;28;20013;-73
2021/12/18 08:47:38;;;;;;;24.75;12.13;;;8.60;99.90;;;;;;5085877;28;20028;-73
2021/12/18 08:50:06;;;;;;;24.65;12.65;;;8.60;99.90;;;;;;5086877;28;20032;-74
2021/12/18 08:52:32;;;;;;;24.13;13.40;;;8.60;99.90;;;;;;5085540;28;20059;-73
2021/12/18 08:54:59;;;;;;;22.83;12.38;;;8.60;99.90;;;;;;5086825;28;20020;-73
2021/12/18 08:57:25;;;;;;;24.77;13.82;;;8.60;99.90;;;;;;5086621;28;20023;-74
2021/12/18 08:59:51;;;;;;;24.30;12.85;;;8.60;99.90;;;;;;5085527;28;20337;-73
2021/12/18 09:02:17;;;;;;;27.13;14.65;;;8.70;99.90;;;;;;5085405;28;20028;-73
2021/12/18 09:04:43;;;;;;;29.42;15.00;;;8.70;99.90;;;;;;5085497;28;20274;-74
2021/12/18 09:07:09;;;;;;;21.00;12.68;;;8.70;99.90;;;;;;5086443;28;20024;-74
2021/12/18 09:09:35;;;;;;;24.13;13.82;;;8.70;99.90;;;;;;5086617;28;20062;-74
2021/12/18 09:12:01;;;;;;;24.10;13.02;;;8.70;99.90;;;;;;5085570;28;20029;-73
2021/12/18 09:14:27;;;;;;;23.20;12.18;;;8.70;99.90;;;;;;5085441;28;20055;-74
2021/12/18 09:16:54;;;;;;;23.95;12.57;;;8.70;99.90;;;;;;5068640;28;20020;-74
2021/12/18 09:19:20;;;;;;;23.35;12.65;;;8.70;99.90;;;;;;5085248;28;20039;-73
2021/12/18 09:21:46;;;;;;;21.15;12.95;;;8.70;99.90;;;;;;5084325;28;20024;-74
2021/12/18 09:24:12;;;;;;;21.23;11.73;;;8.70;99.90;;;;;;5084758;28;20096;-74
2021/12/18 09:26:38;;;;;;;21.70;12.07;;;8.70;99.90;;;;;;5084963;28;20031;-73
2021/12/18 09:29:04;;;;;;;20.23;12.80;;;8.80;99.90;;;;;;5085951;28;20020;-74
2021/12/18 09:31:29;;;;;;;20.48;12.35;;;8.80;99.90;;;;;;5084370;28;20042;-73
2021/12/18 09:33:55;;;;;;;21.70;12.55;;;8.80;99.90;;;;;;5084820;28;20215;-74
2021/12/18 09:36:22;;;;;;;19.13;12.07;;;8.80;99.90;;;;;;5084990;28;20020;-74
2021/12/18 09:38:47;;;;;;;21.40;11.98;;;8.80;99.90;;;;;;5086060;28;20092;-74
2021/12/18 09:41:13;;;;;;;18.30;11.35;;;8.80;99.90;;;;;;5085796;28;20020;-74
2021/12/18 09:43:39;;;;;;;17.85;11.40;;;8.80;99.90;;;;;;5084813;28;20046;-74
2021/12/18 09:46:11;;;;;;;19.25;11.18;;;8.80;99.90;;;;;;5085391;28;20300;-75
2021/12/18 09:48:38;;;;;;;;;;;8.80;99.90;;;;;;5070966;28;20030;-73
2021/12/18 09:51:08;;;;;;;21.05;10.70;;;8.80;99.90;;;;;;5088032;28;19904;-73
2021/12/18 09:53:35;;;;;;;19.55;11.95;;;8.80;99.90;;;;;;5087452;28;20017;-75
2021/12/18 09:56:04;;;;;;;21.65;12.27;;;8.90;99.90;;;;;;5087752;28;20025;-74
2021/12/18 09:58:29;;;;;;;24.52;13.05;;;8.90;99.90;;;;;;5068785;28;20316;-74
2021/12/18 10:00:55;;;;;;;24.38;13.23;;;8.90;99.90;;;;;;5085635;28;20052;-74
2021/12/18 10:03:21;;;;;;;22.92;13.20;;;9.00;99.90;;;;;;5084407;28;20036;-75
2021/12/18 10:05:48;;;;;;;24.25;14.10;;;9.00;99.90;;;;;;5085353;28;20200;-74
2021/12/18 10:08:18;;;;;;;20.85;12.27;;;9.00;99.90;;;;;;5085367;28;20016;-74
2021/12/18 10:11:07;;;;;;;19.58;11.82;;;9.00;99.90;;;;;;5085315;28;20021;-75
2021/12/18 10:13:54;;;;;;;20.02;12.18;;;9.00;99.90;;;;;;5084311;28;20035;-74
2021/12/18 10:16:21;;;;;;;16.63;10.10;;;9.00;99.90;;;;;;5070542;28;20192;-73
2021/12/18 10:18:47;;;;;;;22.70;11.43;;;9.00;99.90;;;;;;5067609;28;20024;-74
2021/12/18 10:21:16;;;;;;;17.50;11.15;;;9.00;99.90;;;;;;5083738;28;20351;-74
2021/12/18 10:23:44;;;;;;;18.52;10.82;;;9.10;99.90;;;;;;5083747;28;20028;-74
2021/12/18 10:26:34;;;;;;;22.55;12.90;;;9.10;99.90;;;;;;5084838;28;20045;-75
2021/12/18 10:29:00;;;;;;;20.90;12.65;;;9.10;99.90;;;;;;5070757;28;20016;-76
2021/12/18 10:31:44;;;;;;;19.90;11.73;;;9.10;99.90;;;;;;5084899;28;20020;-73
2021/12/18 10:34:30;;;;;;;18.38;11.52;;;9.10;99.90;;;;;;5081869;28;20020;-74
2021/12/18 10:37:31;;;;;;;22.95;12.77;;;9.10;99.90;;;;;;5083840;28;20038;-74
2021/12/18 10:40:04;;;;;;;19.87;11.90;;;9.10;99.90;;;;;;5055495;28;20312;-74
2021/12/18 10:42:33;;;;;;;19.02;11.63;;;9.10;99.90;;;;;;5083573;28;20353;-74
2021/12/18 10:45:20;;;;;;;19.52;12.15;;;9.10;99.90;;;;;;5083478;28;20040;-74
2021/12/18 10:47:55;;;;;;;19.35;12.23;;;9.10;99.90;;;;;;5083828;28;20016;-74
2021/12/18 10:50:35;;;;;;;23.77;13.30;;;9.10;99.90;;;;;;5084434;28;20048;-74
2021/12/18 10:53:06;;;;;;;21.50;12.98;;;9.10;99.90;;;;;;5083663;28;20016;-74
2021/12/18 10:55:56;;;;;;;20.50;13.00;;;9.20;99.90;;;;;;5066296;28;20017;-75
2021/12/18 10:58:30;;;;;;;21.92;13.07;;;9.20;99.90;;;;;;5083851;28;20028;-73
2021/12/18 11:01:00;;;;;;;23.73;13.70;;;9.20;99.90;;;;;;5083618;28;20043;-74
2021/12/18 11:03:44;;;;;;;21.88;14.15;;;9.30;99.90;;;;;;5088219;28;20012;-73
2021/12/18 11:06:28;;;;;;;23.77;14.45;;;9.20;99.90;;;;;;5080972;28;20095;-74
2021/12/18 11:09:01;;;;;;;22.23;13.73;;;9.30;99.90;;;;;;5095980;28;20105;-73
2021/12/18 11:14:22;;;;;;;24.42;14.85;;;9.30;99.90;;;;;;5077770;28;20020;-73
2021/12/18 11:16:54;;;;;;;23.42;13.98;;;9.30;99.90;;;;;;5083870;28;20329;-74
2021/12/18 11:19:23;;;;;;;23.98;14.98;;;9.30;99.90;;;;;;5049841;28;20039;-74
2021/12/18 11:21:53;;;;;;;25.20;15.05;;;9.20;99.90;;;;;;5083247;28;20031;-73
2021/12/18 11:24:21;;;;;;;26.15;14.93;;;9.30;99.90;;;;;;5084009;28;20192;-74
2021/12/18 11:27:08;;;;;;;25.98;15.98;;;9.30;99.90;;;;;;5082718;28;20020;-74
2021/12/18 11:29:51;;;;;;;25.50;16.05;;;9.30;99.90;;;;;;5083054;28;20059;-75
2021/12/18 11:32:21;;;;;;;26.40;15.38;;;9.30;99.90;;;;;;5084090;28;20020;-74
2021/12/18 11:34:49;;;;;;;26.50;15.05;;;9.30;99.90;;;;;;5048330;28;20025;-75
2021/12/18 11:37:17;;;;;;;24.95;15.32;;;9.30;99.90;;;;;;5082776;28;20334;-74
2021/12/18 11:39:45;;;;;;;22.75;15.20;;;9.30;99.90;;;;;;5083007;28;20016;-74
2021/12/18 11:42:12;;;;;;;24.25;14.85;;;9.40;99.90;;;;;;5084033;28;20043;-74
2021/12/18 11:44:42;;;;;;;23.95;14.63;;;9.40;99.90;;;;;;5083480;28;20074;-75
2021/12/18 11:47:31;;;;;;;24.40;15.98;;;9.40;99.90;;;;;;5082661;28;20027;-74
2021/12/18 11:50:03;;;;;;;22.95;14.70;;;9.40;99.90;;;;;;5066800;28;20021;-74
2021/12/18 11:52:29;;;;;;;25.33;15.68;;;9.50;99.90;;;;;;5082567;28;20087;-75
2021/12/18 11:54:58;;;;;;;26.75;15.63;;;9.40;99.90;;;;;;5082576;28;20028;-75
2021/12/18 11:57:48;;;;;;;22.60;14.93;;;9.50;99.90;;;;;;5082604;28;20020;-75
2021/12/18 12:00:36;;;;;;;22.60;14.85;;;9.50;99.90;;;;;;5082834;28;20188;-74
2021/12/18 12:03:05;;;;;;;21.55;15.32;;;9.60;99.90;;;;;;5083112;28;20024;-74
2021/12/18 12:05:34;;;;;;;22.05;14.63;;;9.50;99.90;;;;;;5082257;28;20028;-75
2021/12/18 12:08:21;;;;;;;22.33;13.77;;;9.60;99.90;;;;;;5082799;28;20035;-75
2021/12/18 12:11:17;;;;;;;22.85;14.85;;;9.60;99.90;;;;;;5083017;28;20044;-75
2021/12/18 12:14:08;;;;;;;21.25;14.23;;;9.60;99.90;;;;;;5070201;28;20268;-76
2021/12/18 12:16:58;;;;;;;24.75;15.63;;;9.70;99.90;;;;;;5069455;28;20077;-74
2021/12/18 12:19:40;;;;;;;24.00;15.88;;;9.70;99.90;;;;;;5068658;28;20051;-75
2021/12/18 12:22:12;;;;;;;26.83;14.23;;;9.80;99.90;;;;;;5082446;28;20021;-75
2021/12/18 12:24:56;;;;;;;22.52;14.20;;;9.80;99.90;;;;;;5083674;28;20031;-75
2021/12/18 12:27:31;;;;;;;21.50;13.80;;;9.80;99.90;;;;;;5081962;28;20024;-75
2021/12/18 12:30:00;;;;;;;21.80;13.75;;;9.80;99.90;;;;;;5082388;28;20028;-75
2021/12/18 12:32:29;;;;;;;22.58;14.18;;;9.80;99.90;;;;;;5049404;28;20025;-74
2021/12/18 12:35:00;;;;;;;21.27;14.57;;;9.80;99.90;;;;;;5080334;28;20028;-75
2021/12/18 12:37:40;;;;;;;21.10;14.07;;;9.80;99.90;;;;;;5065931;28;20207;-75
2021/12/18 12:40:13;;;;;;;19.10;13.50;;;9.80;99.90;;;;;;5082334;28;20052;-75
2021/12/18 12:42:41;;;;;;;19.63;13.80;;;9.80;99.90;;;;;;5082226;28;20016;-74
2021/12/18 12:45:13;;;;;;;22.42;14.05;;;9.80;99.90;;;;;;5049391;28;20181;-76
2021/12/18 12:47:40;;;;;;;21.67;14.77;;;9.80;99.90;;;;;;5083521;28;20047;-75
2021/12/18 12:50:26;;;;;;;19.08;13.68;;;9.80;99.90;;;;;;5082182;28;20037;-74
2021/12/18 12:52:56;;;;;;;21.33;13.93;;;9.80;99.90;;;;;;5068104;28;20339;-74
2021/12/18 12:55:25;;;;;;;22.00;14.77;;;9.90;99.90;;;;;;5082795;28;20019;-73
2021/12/18 12:57:55;;;;;;;19.95;14.20;;;9.90;99.90;;;;;;5085382;28;20020;-76
2021/12/18 13:00:41;;;;;;;22.60;15.40;;;9.90;99.90;;;;;;5086756;28;20370;-75
2021/12/18 13:03:11;;;;;;;20.30;14.38;;;9.80;99.90;;;;;;5086045;28;20052;-74
2021/12/18 13:05:51;;;;;;;22.15;15.45;;;9.80;99.90;;;;;;5068797;28;20027;-74
2021/12/18 13:08:18;;;;;;;20.42;14.20;;;9.70;99.90;;;;;;5068835;28;20028;-75
2021/12/18 13:10:46;;;;;;;21.05;14.30;;;9.80;99.90;;;;;;5068962;28;20024;-74
2021/12/18 13:13:15;;;;;;;19.48;13.85;;;9.80;99.90;;;;;;5085652;28;20066;-74
2021/12/18 13:15:51;;;;;;;22.42;14.48;;;9.80;99.90;;;;;;5086674;28;20016;-74
2021/12/18 13:18:18;;;;;;;20.42;14.48;;;9.90;99.90;;;;;;5086273;28;20048;-75
2021/12/18 13:20:50;;;;;;;23.15;15.02;;;9.90;99.90;;;;;;5085057;28;20239;-75